Apex, North Carolina
Current Conditions -  °F | °C
As of 3:51 AM on Monday 24 Nov 2014 (Local Time) from KRDU Reporting Station
Scattered Clouds Scattered Clouds  
Wind Chill: 63°   Ceiling: Unl
Heat Index: 63°   Visibility: 10mi
Dew Point: 59°   Wind: 12mph
Humidity: 87%   Direction: 200°SSW
Pressure: 29.77"   Gusts: NA
Location:  35.73°N, 78.84°W
Report Text: KRDU 240851Z 20010KT 10SM SCT023 SCT035 17/15 A2977 RMK AO2 SLP080 T01720150 50008 $
Loading
Personal Weather Stations






























Interactive Weather Map New forecast layout! Learn more

10-Day Weather Forecast

Advertisements
Track Severe Weather on mobile